Time;durP1;ratioP1;P1;durP2;ratioP2;P2;SDS_P1;SDS_P2;PMS_P1;PMS_P2;Temp;Humidity;BMP_temperature;BMP_pressure;BME280_temperature;BME280_humidity;BME280_pressure;Samples;Min_cycle;Max_cycle;Signal;HPM_P1;HPM_P2
2022/11/24 00:00:25;;;;;;;;;;;;;;;4.40;100.00;99309.44;5575580;31;34416;-75
2022/11/24 00:03:32;;;;;;;;;;;;;;;4.40;100.00;99318.13;5589293;31;34350;-75
2022/11/24 00:06:38;;;;;;;;;;;;;;;4.40;100.00;99312.88;5575028;31;33759;-75
2022/11/24 00:09:46;;;;;;;;;;;;;;;4.46;100.00;99309.63;5589550;31;34174;-75
2022/11/24 00:12:53;;;;;;;;;;;;;;;4.46;100.00;99312.25;5589128;31;34463;-75
2022/11/24 00:16:03;;;;;;;;;;;;;;;4.44;100.00;99308.97;5575181;31;34100;-76
2022/11/24 00:19:08;;;;;;;;;;;;;;;4.38;100.00;99315.66;5588931;31;35075;-76
2022/11/24 00:22:11;;;;;;;;;;;;;;;4.42;100.00;99312.72;5575315;31;34571;-75
2022/11/24 00:25:21;;;;;;;;;;;;;;;4.38;100.00;99317.47;5589073;31;34727;-75
2022/11/24 00:28:28;;;;;;;;;;;;;;;4.42;100.00;99321.41;5588777;31;35415;-75
2022/11/24 00:31:38;;;;;;;;;;;;;;;4.44;100.00;99323.91;5588887;31;34745;-75
2022/11/24 00:34:43;;;;;;;;;;;;;;;4.43;100.00;99330.94;5575266;31;34237;-76
2022/11/24 00:37:52;;;;;;;;;;;;;;;4.42;100.00;99333.72;5575443;31;34844;-76
2022/11/24 00:40:59;;;;;;;;;;;;;;;4.40;100.00;99341.78;5588849;31;34756;-75
2022/11/24 00:44:05;;;;;;;;;;;;;;;4.41;100.00;99335.53;5588734;31;34247;-76
2022/11/24 00:47:14;;;;;;;;;;;;;;;4.37;100.00;99353.41;5574630;31;33681;-75
2022/11/24 00:50:21;;;;;;;;;;;;;;;4.36;100.00;99343.84;5588160;31;34506;-76
2022/11/24 00:53:29;;;;;;;;;;;;;;;4.46;100.00;99351.63;5588386;31;34313;-76
2022/11/24 00:56:34;;;;;;;;;;;;;;;4.47;100.00;99362.97;5574945;31;34189;-76
2022/11/24 00:59:41;;;;;;;;;;;;;;;4.43;100.00;99359.00;5575000;31;34596;-75
2022/11/24 01:02:46;;;;;;;;;;;;;;;4.41;100.00;99359.16;5588148;31;34304;-76
2022/11/24 01:06:04;;;;;;;;;;;;;;;4.43;100.00;99362.47;5591190;31;35012;-75
2022/11/24 01:09:14;;;;;;;;;;;;;;;4.48;100.00;99356.75;5576729;31;34576;-76
2022/11/24 01:12:25;;;;;;;;;;;;;;;4.43;100.00;99357.22;5590938;31;34671;-76
2022/11/24 01:15:30;;;;;;;;;;;;;;;4.39;100.00;99355.88;5577546;31;34954;-75
2022/11/24 01:18:36;;;;;;;;;;;;;;;4.40;100.00;99361.94;5591098;31;34813;-75
2022/11/24 01:21:45;;;;;;;;;;;;;;;4.39;100.00;99361.13;5590906;31;34478;-75
2022/11/24 01:24:54;;;;;;;;;;;;;;;4.40;100.00;99362.78;5590975;31;34637;-75
2022/11/24 01:28:01;;;;;;;;;;;;;;;4.37;100.00;99363.06;5590851;31;34643;-77
2022/11/24 01:31:09;;;;;;;;;;;;;;;4.37;100.00;99363.06;5590809;31;34210;-76
2022/11/24 01:34:19;;;;;;;;;;;;;;;4.37;100.00;99368.31;5577819;31;34247;-76
2022/11/24 01:37:26;;;;;;;;;;;;;;;4.37;100.00;99368.31;5591284;31;34319;-76
2022/11/24 01:40:33;;;;;;;;;;;;;;;4.36;100.00;99369.28;5590996;31;34265;-76
2022/11/24 01:43:40;;;;;;;;;;;;;;;4.33;100.00;99372.22;5590695;31;34254;-77
2022/11/24 01:46:48;;;;;;;;;;;;;;;4.29;100.00;99373.53;5590805;31;34926;-77
2022/11/24 01:49:56;;;;;;;;;;;;;;;4.37;100.00;99371.78;5576801;31;34269;-77
2022/11/24 01:53:04;;;;;;;;;;;;;;;4.35;100.00;99371.13;5590626;31;34915;-77
2022/11/24 01:56:12;;;;;;;;;;;;;;;4.33;100.00;99372.22;5590721;31;34179;-74
2022/11/24 01:59:18;;;;;;;;;;;;;;;4.36;100.00;99380.62;5590685;31;34313;-76
2022/11/24 02:02:27;;;;;;;;;;;;;;;4.36;100.00;99379.78;5590617;31;34894;-76
2022/11/24 02:05:45;;;;;;;;;;;;;;;4.38;100.00;99377.84;5590610;31;34952;-76
2022/11/24 02:09:12;;;;;;;;;;;;;;;4.31;100.00;99382.06;5577773;31;34458;-77
2022/11/24 02:12:22;;;;;;;;;;;;;;;4.34;100.00;99373.88;5590419;31;34249;-76
2022/11/24 02:15:28;;;;;;;;;;;;;;;4.34;100.00;99379.97;5589175;31;34051;-77
2022/11/24 02:18:36;;;;;;;;;;;;;;;4.34;100.00;99374.72;5590597;31;34727;-77
2022/11/24 02:21:45;;;;;;;;;;;;;;;4.33;100.00;99380.94;5590571;31;34850;-77
2022/11/24 02:24:57;;;;;;;;;;;;;;;4.37;100.00;99382.28;5590310;31;34619;-77
2022/11/24 02:28:06;;;;;;;;;;;;;;;4.37;100.00;99384.06;5590308;31;34205;-77
2022/11/24 02:31:13;;;;;;;;;;;;;;;4.37;100.00;99379.66;5576459;31;34149;-76
2022/11/24 02:34:21;;;;;;;;;;;;;;;4.34;100.00;99385.22;5590426;31;34945;-77
2022/11/24 02:37:29;;;;;;;;;;;;;;;4.33;100.00;99383.56;5590307;31;34826;-76
2022/11/24 02:40:37;;;;;;;;;;;;;;;4.36;100.00;99387.66;5590386;31;34877;-76
2022/11/24 02:43:47;;;;;;;;;;;;;;;4.29;100.00;99376.16;5590435;31;34111;-76
2022/11/24 02:47:05;;;;;;;;;;;;;;;4.28;100.00;99377.13;5590319;31;34716;-78
2022/11/24 02:50:12;;;;;;;;;;;;;;;4.26;100.00;99384.34;5590233;31;34570;-78
2022/11/24 02:53:20;;;;;;;;;;;;;;;4.21;100.00;99378.72;5590268;31;33982;-76
2022/11/24 02:56:27;;;;;;;;;;;;;;;4.22;100.00;99388.22;5590045;31;35208;-75
2022/11/24 02:59:34;;;;;;;;;;;;;;;4.10;100.00;99387.62;5590106;31;34225;-76
2022/11/24 03:02:41;;;;;;;;;;;;;;;4.09;100.00;99390.41;5590089;31;34238;-76
2022/11/24 03:05:49;;;;;;;;;;;;;;;4.05;100.00;99387.25;5590047;31;34832;-76
2022/11/24 03:08:56;;;;;;;;;;;;;;;4.09;100.00;99385.16;5590036;31;34674;-76
2022/11/24 03:12:04;;;;;;;;;;;;;;;4.04;100.00;99385.59;5589984;31;34643;-75
2022/11/24 03:15:10;;;;;;;;;;;;;;;4.07;100.00;99387.91;5589720;31;34850;-75
2022/11/24 03:18:17;;;;;;;;;;;;;;;4.00;100.00;99389.50;5576017;31;32601;-74
2022/11/24 03:21:24;;;;;;;;;;;;;;;3.99;100.00;99394.91;5576509;31;34391;-75
2022/11/24 03:24:34;;;;;;;;;;;;;;;4.01;100.00;99399.03;5589952;31;34921;-75
2022/11/24 03:27:44;;;;;;;;;;;;;;;3.93;100.00;99391.91;5589118;31;34425;-74
2022/11/24 03:30:56;;;;;;;;;;;;;;;3.91;100.00;99400.91;5575607;31;34734;-75
2022/11/24 03:34:03;;;;;;;;;;;;;;;3.89;100.00;99398.44;5575814;31;33709;-75
2022/11/24 03:37:13;;;;;;;;;;;;;;;3.89;100.00;99415.97;5589760;31;34574;-74
2022/11/24 03:40:19;;;;;;;;;;;;;;;3.83;100.00;99406.06;5589644;31;34693;-76
2022/11/24 03:43:28;;;;;;;;;;;;;;;3.81;100.00;99414.09;5589856;31;34321;-75
2022/11/24 03:46:35;;;;;;;;;;;;;;;3.80;100.00;99416.84;5589608;31;34315;-76
2022/11/24 03:49:46;;;;;;;;;;;;;;;3.82;100.00;99421.00;5589507;31;34206;-75
2022/11/24 03:52:52;;;;;;;;;;;;;;;3.79;100.00;99428.31;5576014;31;34329;-76
2022/11/24 03:56:00;;;;;;;;;;;;;;;3.79;100.00;99420.44;5575490;31;33904;-75
2022/11/24 03:59:07;;;;;;;;;;;;;;;3.83;100.00;99427.03;5589259;31;34561;-75
2022/11/24 04:02:16;;;;;;;;;;;;;;;3.83;100.00;99424.41;5589307;31;34999;-74
2022/11/24 04:05:24;;;;;;;;;;;;;;;3.87;100.00;99425.81;5589344;31;34310;-76
2022/11/24 04:08:30;;;;;;;;;;;;;;;3.83;100.00;99429.66;5575752;31;34704;-76
2022/11/24 04:15:05;;;;;;;;;;;;;;;3.78;100.00;99424.88;5575372;31;35544;-76
2022/11/24 04:18:12;;;;;;;;;;;;;;;3.73;100.00;99421.03;5589047;31;34256;-75
2022/11/24 04:21:18;;;;;;;;;;;;;;;3.71;100.00;99423.81;5589007;31;34282;-75
2022/11/24 04:24:27;;;;;;;;;;;;;;;3.65;100.00;99437.50;5589270;31;34981;-76
2022/11/24 04:27:35;;;;;;;;;;;;;;;3.67;100.00;99437.37;5588849;31;34295;-76
2022/11/24 04:30:43;;;;;;;;;;;;;;;3.60;100.00;99439.75;5574892;31;35544;-76
2022/11/24 04:33:49;;;;;;;;;;;;;;;3.59;100.00;99439.88;5588628;31;34797;-75
2022/11/24 04:36:55;;;;;;;;;;;;;;;3.58;100.00;99446.97;5588772;31;34308;-76
2022/11/24 04:40:02;;;;;;;;;;;;;;;3.47;100.00;99452.37;5590656;31;34146;-75
2022/11/24 04:43:08;;;;;;;;;;;;;;;3.53;100.00;99456.22;5591342;31;34566;-74
2022/11/24 04:46:16;;;;;;;;;;;;;;;3.37;100.00;99460.28;5591245;31;34276;-75
2022/11/24 04:49:25;;;;;;;;;;;;;;;3.30;100.00;99459.22;5576985;31;34216;-74
2022/11/24 04:52:31;;;;;;;;;;;;;;;3.29;100.00;99459.37;5577495;31;34226;-74
2022/11/24 04:55:37;;;;;;;;;;;;;;;3.22;100.00;99466.97;5591268;31;34244;-74
2022/11/24 04:58:43;;;;;;;;;;;;;;;3.27;100.00;99471.78;5591151;31;34930;-76
2022/11/24 05:01:49;;;;;;;;;;;;;;;3.25;100.00;99469.28;5590993;31;35139;-75
2022/11/24 05:04:55;;;;;;;;;;;;;;;3.19;100.00;99474.31;5591275;31;34875;-75
2022/11/24 05:08:04;;;;;;;;;;;;;;;3.25;100.00;99495.50;5591185;31;33990;-77
2022/11/24 05:11:10;;;;;;;;;;;;;;;3.21;100.00;99495.94;5590976;31;34482;-76
2022/11/24 05:14:17;;;;;;;;;;;;;;;3.30;100.00;99500.31;5590870;31;34824;-75
2022/11/24 05:17:27;;;;;;;;;;;;;;;3.29;100.00;99496.88;5591046;31;34903;-76
2022/11/24 05:20:32;;;;;;;;;;;;;;;3.34;100.00;99504.34;5564364;31;35167;-76
2022/11/24 05:23:39;;;;;;;;;;;;;;;3.33;100.00;99510.53;5591081;31;35027;-76
2022/11/24 05:26:46;;;;;;;;;;;;;;;3.40;100.00;99509.81;5590944;31;34595;-76
2022/11/24 05:29:52;;;;;;;;;;;;;;;3.46;100.00;99506.63;5590868;31;34288;-76
2022/11/24 05:33:03;;;;;;;;;;;;;;;3.48;100.00;99519.59;5590660;31;35148;-75
2022/11/24 05:36:51;;;;;;;;;;;;;;;3.49;100.00;99523.84;5590880;31;34894;-74
2022/11/24 05:39:35;;;;;;;;;;;;;;;3.54;100.00;99524.25;5590852;31;33759;-75
2022/11/24 05:42:40;;;;;;;;;;;;;;;3.47;100.00;99523.19;5577330;31;34312;-76
2022/11/24 05:45:52;;;;;;;;;;;;;;;3.50;100.00;99528.13;5590726;31;34875;-76
2022/11/24 05:49:00;;;;;;;;;;;;;;;3.58;100.00;99523.00;5590395;31;35006;-74
2022/11/24 05:52:07;;;;;;;;;;;;;;;3.55;100.00;99532.94;5590823;31;34925;-74
2022/11/24 05:55:18;;;;;;;;;;;;;;;3.58;100.00;99549.22;5590465;31;34677;-74
2022/11/24 05:58:23;;;;;;;;;;;;;;;3.62;100.00;99550.59;5590531;31;34979;-75
2022/11/24 06:01:27;;;;;;;;;;;;;;;3.62;100.00;99532.25;5590270;31;35016;-76
2022/11/24 06:04:30;;;;;;;;;;;;;;;3.64;100.00;99542.56;5590461;31;34441;-76
2022/11/24 06:07:35;;;;;;;;;;;;;;;3.68;100.00;99544.75;5576894;31;34889;-75
2022/11/24 06:10:40;;;;;;;;;;;;;;;3.73;100.00;99544.31;5590280;31;34218;-75
2022/11/24 06:13:45;;;;;;;;;;;;;;;3.69;100.00;99550.81;5589997;31;34441;-75
2022/11/24 06:16:51;;;;;;;;;;;;;;;3.75;100.00;99552.88;5590140;31;34281;-76
2022/11/24 06:19:57;;;;;;;;;;;;;;;3.77;100.00;99556.19;5576929;31;34377;-75
2022/11/24 06:23:01;;;;;;;;;;;;;;;3.79;100.00;99557.69;5590043;31;34217;-73
2022/11/24 06:26:04;;;;;;;;;;;;;;;3.75;100.00;99563.38;5590215;31;34286;-75
2022/11/24 06:29:09;;;;;;;;;;;;;;;3.73;100.00;99565.31;5576587;31;34285;-75
2022/11/24 06:32:12;;;;;;;;;;;;;;;3.80;100.00;99569.00;5575726;31;34551;-74
2022/11/24 06:35:17;;;;;;;;;;;;;;;3.85;100.00;99583.34;5590014;31;35123;-75
2022/11/24 06:38:22;;;;;;;;;;;;;;;3.86;100.00;99566.66;5590228;31;34250;-74
2022/11/24 06:41:26;;;;;;;;;;;;;;;3.90;100.00;99585.53;5589937;31;34134;-73
2022/11/24 06:44:29;;;;;;;;;;;;;;;3.90;100.00;99581.13;5576065;31;35272;-74
2022/11/24 06:47:32;;;;;;;;;;;;;;;3.90;100.00;99591.63;5590148;31;34615;-74
2022/11/24 06:50:36;;;;;;;;;;;;;;;3.94;100.00;99592.16;5576386;31;34876;-74
2022/11/24 06:53:41;;;;;;;;;;;;;;;4.03;100.00;99593.91;5589992;31;34387;-74
2022/11/24 06:56:45;;;;;;;;;;;;;;;4.08;100.00;99596.09;5575785;31;33180;-75
2022/11/24 06:59:49;;;;;;;;;;;;;;;4.07;100.00;99607.56;5589544;31;34194;-75
2022/11/24 07:02:52;;;;;;;;;;;;;;;4.10;100.00;99610.75;5574878;31;34962;-74
2022/11/24 07:05:59;;;;;;;;;;;;;;;4.19;100.00;99614.28;5589931;31;34394;-73
2022/11/24 07:09:03;;;;;;;;;;;;;;;4.19;100.00;99611.66;5575278;31;33089;-75
2022/11/24 07:12:08;;;;;;;;;;;;;;;4.18;100.00;99620.50;5574377;31;33144;-75
2022/11/24 07:15:10;;;;;;;;;;;;;;;4.07;100.00;99615.44;5575165;31;34201;-75
2022/11/24 07:18:13;;;;;;;;;;;;;;;4.02;100.00;99626.34;5589702;31;34697;-76
2022/11/24 07:21:16;;;;;;;;;;;;;;;4.06;100.00;99630.38;5589823;31;34278;-76
2022/11/24 07:24:21;;;;;;;;;;;;;;;4.08;100.00;99627.59;5589671;31;34707;-76
2022/11/24 07:27:26;;;;;;;;;;;;;;;4.13;100.00;99644.56;5589441;31;34272;-71
2022/11/24 07:30:29;;;;;;;;;;;;;;;4.25;100.00;99646.03;5575826;31;35628;-74
2022/11/24 07:33:33;;;;;;;;;;;;;;;4.24;100.00;99640.94;5589490;31;34860;-72
2022/11/24 07:36:37;;;;;;;;;;;;;;;4.34;100.00;99650.41;5589398;31;34546;-74
2022/11/24 07:39:43;;;;;;;;;;;;;;;4.34;100.00;99655.66;5588900;31;34207;-75
2022/11/24 07:42:47;;;;;;;;;;;;;;;4.41;100.00;99650.63;5589448;31;34225;-74
2022/11/24 07:45:50;;;;;;;;;;;;;;;4.40;100.00;99656.06;5562405;31;33242;-74
2022/11/24 07:48:55;;;;;;;;;;;;;;;4.50;100.00;99646.34;5589347;31;34891;-73
2022/11/24 07:52:00;;;;;;;;;;;;;;;4.48;100.00;99643.84;5589215;31;34320;-73
2022/11/24 07:55:04;;;;;;;;;;;;;;;4.50;100.00;99648.97;5589115;31;34936;-73
2022/11/24 07:58:07;;;;;;;;;;;;;;;4.61;100.00;99651.34;5589425;31;34601;-74
2022/11/24 08:01:11;;;;;;;;;;;;;;;4.60;100.00;99654.97;5589283;31;34675;-76
2022/11/24 08:04:15;;;;;;;;;;;;;;;4.67;100.00;99662.12;5575637;31;34875;-73
2022/11/24 08:07:18;;;;;;;;;;;;;;;4.61;100.00;99656.63;5589086;31;35036;-74
2022/11/24 08:10:21;;;;;;;;;;;;;;;4.60;100.00;99660.25;5589068;31;34233;-75
2022/11/24 08:13:25;;;;;;;;;;;;;;;4.62;100.00;99682.75;5576332;31;35538;-75
2022/11/24 08:16:31;;;;;;;;;;;;;;;4.51;100.00;99675.06;5590991;31;34231;-75
2022/11/24 08:19:34;;;;;;;;;;;;;;;4.59;100.00;99683.06;5591346;31;34320;-76
2022/11/24 08:22:41;;;;;;;;;;;;;;;4.65;100.00;99687.69;5591527;31;34180;-73
2022/11/24 08:25:46;;;;;;;;;;;;;;;4.67;100.00;99688.37;5577830;31;34215;-73
2022/11/24 08:28:52;;;;;;;;;;;;;;;4.63;100.00;99683.56;5577124;31;35188;-74
2022/11/24 08:31:56;;;;;;;;;;;;;;;4.67;100.00;99679.69;5591252;31;34268;-76
2022/11/24 08:35:01;;;;;;;;;;;;;;;4.77;100.00;99683.06;5591138;31;34289;-75
2022/11/24 08:38:17;;;;;;;;;;;;;;;4.73;100.00;99685.19;5591118;31;34464;-74
2022/11/24 08:41:21;;;;;;;;;;;;;;;4.73;100.00;99686.97;5591229;31;34695;-75
2022/11/24 08:44:24;;;;;;;;;;;;;;;4.75;100.00;99696.34;5591142;31;34228;-75
2022/11/24 08:47:27;;;;;;;;;;;;;;;4.80;100.00;99703.78;5577316;31;34306;-76
2022/11/24 08:50:31;;;;;;;;;;;;;;;4.93;100.00;99711.34;5591061;31;34200;-75
2022/11/24 08:53:35;;;;;;;;;;;;;;;4.98;100.00;99711.72;5590999;31;34898;-75
2022/11/24 08:56:38;;;;;;;;;;;;;;;5.08;100.00;99710.66;5590930;31;34932;-75
2022/11/24 08:59:42;;;;;;;;;;;;;;;5.17;100.00;99712.41;5591046;31;33937;-76
2022/11/24 09:02:51;;;;;;;;;;;;;;;5.08;100.00;99718.53;5577033;31;35907;-74
2022/11/24 09:05:55;;;;;;;;;;;;;;;5.08;100.00;99723.81;5591014;31;34843;-71
2022/11/24 09:08:59;;;;;;;;;;;;;;;5.17;100.00;99716.84;5590809;31;35131;-70
2022/11/24 09:12:04;;;;;;;;;;;;;;;5.09;100.00;99720.22;5577205;31;34710;-73
2022/11/24 09:15:15;;;;;;;;;;;;;;;5.05;100.00;99724.13;5590479;31;34274;-74
2022/11/24 09:18:22;;;;;;;;;;;;;;;5.18;100.00;99716.69;5576221;31;34382;-72
2022/11/24 09:21:33;;;;;;;;;;;;;;;5.04;100.00;99717.19;5590649;31;34940;-75
2022/11/24 09:24:38;;;;;;;;;;;;;;;5.19;100.00;99735.91;5589970;31;34900;-74
2022/11/24 09:27:41;;;;;;;;;;;;;;;5.19;100.00;99733.28;5590495;31;34390;-74
2022/11/24 09:30:45;;;;;;;;;;;;;;;5.25;100.00;99722.19;5576544;31;35402;-75
2022/11/24 09:33:47;;;;;;;;;;;;;;;5.43;100.00;99725.63;5590568;31;34820;-74
2022/11/24 09:36:51;;;;;;;;;;;;;;;5.52;100.00;99729.16;5590717;31;34810;-74
2022/11/24 09:39:54;;;;;;;;;;;;;;;5.72;100.00;99722.75;5590667;31;35184;-76
2022/11/24 09:43:10;;;;;;;;;;;;;;;6.04;100.00;99728.28;5590681;31;34589;-75
2022/11/24 09:46:17;;;;;;;;;;;;;;;6.17;100.00;99729.66;5590523;31;34182;-76
2022/11/24 09:49:34;;;;;;;;;;;;;;;6.24;100.00;99715.75;5590544;31;34678;-75
2022/11/24 09:53:00;;;;;;;;;;;;;;;6.36;100.00;99732.09;5590922;31;34764;-74
2022/11/24 09:56:14;;;;;;;;;;;;;;;6.21;100.00;99708.12;5590525;31;34230;-75
2022/11/24 09:59:19;;;;;;;;;;;;;;;6.08;100.00;99728.81;5576888;31;34281;-73
2022/11/24 10:02:23;;;;;;;;;;;;;;;6.18;100.00;99720.78;5590630;31;34903;-72
2022/11/24 10:05:28;;;;;;;;;;;;;;;5.89;100.00;99718.47;5590426;31;34323;-73
2022/11/24 10:08:37;;;;;;;;;;;;;;;5.85;100.00;99736.34;5590255;31;34828;-73
2022/11/24 10:11:50;;;;;;;;;;;;;;;5.67;100.00;99736.34;5590111;31;34689;-73
2022/11/24 10:15:17;;;;;;;;;;;;;;;5.57;100.00;99732.97;5590065;31;34979;-74
2022/11/24 10:18:25;;;;;;;;;;;;;;;5.60;100.00;99730.06;5590152;31;34393;-73
2022/11/24 10:21:31;;;;;;;;;;;;;;;5.61;100.00;99738.78;5575846;31;34220;-75
2022/11/24 10:24:55;;;;;;;;;;;;;;;5.63;100.00;99732.38;5590165;31;34440;-73
2022/11/24 10:28:02;;;;;;;;;;;;;;;5.53;100.00;99736.91;5590118;31;34940;-74
2022/11/24 10:31:16;;;;;;;;;;;;;;;5.47;100.00;99732.22;5590136;31;34818;-74
2022/11/24 10:34:25;;;;;;;;;;;;;;;5.44;100.00;99734.34;5590078;31;34399;-74
2022/11/24 10:37:41;;;;;;;;;;;;;;;5.45;100.00;99736.84;5588948;31;34299;-74
2022/11/24 10:40:44;;;;;;;;;;;;;;;5.67;100.00;99740.78;5589907;31;34242;-73
2022/11/24 10:44:02;;;;;;;;;;;;;;;5.67;100.00;99736.34;5589898;31;34402;-74
2022/11/24 10:47:16;;;;;;;;;;;;;;;5.75;100.00;99750.56;5590717;31;34258;-75
2022/11/24 10:50:25;;;;;;;;;;;;;;;5.71;100.00;99751.88;5579587;31;34300;-74
2022/11/24 10:53:29;;;;;;;;;;;;;;;5.83;100.00;99748.00;5589916;31;34306;-74
2022/11/24 10:56:41;;;;;;;;;;;;;;;5.93;100.00;99760.13;5576478;31;34876;-75
2022/11/24 10:59:45;;;;;;;;;;;;;;;5.94;100.00;99758.31;5576654;31;34858;-74
2022/11/24 11:03:08;;;;;;;;;;;;;;;6.02;100.00;99766.28;5563482;31;34225;-76
2022/11/24 11:06:25;;;;;;;;;;;;;;;5.94;100.00;99761.78;5590107;31;34368;-74
2022/11/24 11:09:29;;;;;;;;;;;;;;;6.12;100.00;99767.00;5576759;31;34701;-73
2022/11/24 11:12:34;;;;;;;;;;;;;;;6.09;100.00;99769.97;5575449;31;34127;-75
2022/11/24 11:15:46;;;;;;;;;;;;;;;6.19;100.00;99772.50;5588648;31;35016;-75
2022/11/24 11:18:49;;;;;;;;;;;;;;;6.28;100.00;99771.56;5589687;31;34268;-73
2022/11/24 11:22:02;;;;;;;;;;;;;;;6.21;100.00;99776.59;5589783;31;34626;-73
2022/11/24 11:25:08;;;;;;;;;;;;;;;6.37;100.00;99781.16;5589637;31;34286;-72
2022/11/24 11:28:20;;;;;;;;;;;;;;;6.35;100.00;99793.66;5575982;31;34903;-73
2022/11/24 11:31:23;;;;;;;;;;;;;;;6.44;100.00;99785.63;5575384;31;34901;-74
2022/11/24 11:34:32;;;;;;;;;;;;;;;6.40;100.00;99794.00;5589015;31;34469;-72
2022/11/24 11:37:36;;;;;;;;;;;;;;;6.46;100.00;99788.97;5589392;31;34987;-74
2022/11/24 11:40:41;;;;;;;;;;;;;;;6.60;100.00;99799.91;5589272;31;34919;-74
2022/11/24 11:43:44;;;;;;;;;;;;;;;6.73;100.00;99795.84;5591603;31;34630;-74
2022/11/24 11:46:47;;;;;;;;;;;;;;;6.98;100.00;99796.78;5588852;31;34426;-73
2022/11/24 11:49:51;;;;;;;;;;;;;;;6.91;100.00;99804.53;5589277;31;34458;-72
2022/11/24 11:52:58;;;;;;;;;;;;;;;6.84;100.00;99789.47;5575468;31;34349;-74
2022/11/24 11:56:19;;;;;;;;;;;;;;;6.87;100.00;99789.19;5589272;31;34232;-72
2022/11/24 11:59:28;;;;;;;;;;;;;;;6.85;100.00;99791.12;5589134;31;34397;-72
2022/11/24 12:02:41;;;;;;;;;;;;;;;7.02;100.00;99782.28;5589485;31;34941;-74
2022/11/24 12:06:18;;;;;;;;;;;;;;;7.02;100.00;99795.47;5563299;31;35068;-74
2022/11/24 12:09:40;;;;;;;;;;;;;;;7.27;100.00;99793.75;5575401;31;34422;-73
2022/11/24 12:12:58;;;;;;;;;;;;;;;7.43;100.00;99784.06;5575436;31;34922;-76
2022/11/24 12:16:07;;;;;;;;;;;;;;;7.58;100.00;99804.53;5563027;31;811833;-75
2022/11/24 12:19:28;;;;;;;;;;;;;;;7.42;100.00;99792.97;5575513;31;34332;-74
2022/11/24 12:22:31;;;;;;;;;;;;;;;7.53;100.00;99796.28;5575013;31;33871;-76
2022/11/24 12:25:37;;;;;;;;;;;;;;;7.17;100.00;99793.88;5588926;31;34641;-75
2022/11/24 12:28:49;;;;;;;;;;;;;;;6.88;100.00;99804.00;5588819;31;34318;-73
2022/11/24 12:32:03;;;;;;;;;;;;;;;6.87;100.00;99805.78;5588583;31;34227;-73
2022/11/24 12:35:05;;;;;;;;;;;;;;;6.67;100.00;99801.78;5588374;31;34913;-72
2022/11/24 12:38:31;;;;;;;;;;;;;;;6.62;100.00;99803.22;5588475;31;34220;-72
2022/11/24 12:41:45;;;;;;;;;;;;;;;6.49;100.00;99808.88;5566557;31;33404;-72
2022/11/24 12:45:06;;;;;;;;;;;;;;;6.48;100.00;99812.53;5588871;31;34904;-72
2022/11/24 12:48:27;;;;;;;;;;;;;;;6.45;100.00;99803.09;5588537;31;34850;-73
2022/11/24 12:51:32;;;;;;;;;;;;;;;6.44;100.00;99812.00;5574425;31;34195;-72
2022/11/24 12:54:39;;;;;;;;;;;;;;;6.45;100.00;99816.28;5573936;31;35726;-73
2022/11/24 12:57:46;;;;;;;;;;;;;;;6.42;100.00;99821.03;5588594;31;34912;-74
2022/11/24 13:00:58;;;;;;;;;;;;;;;6.40;100.00;99815.09;5576205;31;34988;-73
2022/11/24 13:04:10;;;;;;;;;;;;;;;6.34;100.00;99813.91;5591088;31;34694;-73
2022/11/24 13:07:16;;;;;;;;;;;;;;;6.37;100.00;99821.50;5577647;31;34880;-74
2022/11/24 13:10:25;;;;;;;;;;;;;;;6.41;100.00;99808.84;5576814;31;33463;-75
2022/11/24 13:13:58;;;;;;;;;;;;;;;6.55;100.00;99813.53;5579243;31;35240;-74
2022/11/24 13:17:22;;;;;;;;;;;;;;;6.69;100.00;99822.69;5590765;31;35235;-75
2022/11/24 13:20:44;;;;;;;;;;;;;;;6.72;100.00;99833.75;5590698;31;35180;-75
2022/11/24 13:23:55;;;;;;;;;;;;;;;6.75;100.00;99837.88;5590596;31;35280;-74
2022/11/24 13:27:13;;;;;;;;;;;;;;;6.78;100.00;99832.28;5590427;31;35236;-74
2022/11/24 13:30:34;;;;;;;;;;;;;;;6.86;100.00;99835.81;5590549;31;34802;-74
2022/11/24 13:33:40;;;;;;;;;;;;;;;6.87;100.00;99837.44;5590448;31;34932;-74
2022/11/24 13:36:52;;;;;;;;;;;;;;;6.91;100.00;99833.53;5576698;31;34480;-74
2022/11/24 13:40:03;;;;;;;;;;;;;;;6.88;100.00;99835.63;5590377;31;34567;-74
2022/11/24 13:43:10;;;;;;;;;;;;;;;6.90;100.00;99844.22;5590415;31;35002;-73
2022/11/24 13:46:33;;;;;;;;;;;;;;;6.92;100.00;99850.97;5590518;31;35130;-72
2022/11/24 13:49:37;;;;;;;;;;;;;;;6.98;100.00;99847.72;5590552;31;34400;-73
2022/11/24 13:52:46;;;;;;;;;;;;;;;6.97;100.00;99851.34;5590669;31;34846;-73
2022/11/24 13:55:53;;;;;;;;;;;;;;;7.01;100.00;99846.59;5590396;31;34568;-74
2022/11/24 13:58:59;;;;;;;;;;;;;;;6.90;100.00;99854.78;5590350;31;34594;-74
2022/11/24 14:02:16;;;;;;;;;;;;;;;6.96;100.00;99857.63;5576161;31;33260;-72
2022/11/24 14:05:22;;;;;;;;;;;;;;;6.82;100.00;99863.47;5590597;31;35043;-72
2022/11/24 14:08:28;;;;;;;;;;;;;;;6.77;100.00;99857.00;5590261;31;34939;-73
2022/11/24 14:11:31;;;;;;;;;;;;;;;6.86;100.00;99872.72;5590226;31;34894;-75
2022/11/24 14:14:34;;;;;;;;;;;;;;;6.79;100.00;99850.59;5589775;31;35246;-74
2022/11/24 14:17:38;;;;;;;;;;;;;;;6.79;100.00;99870.84;5576521;31;34235;-73
2022/11/24 14:20:42;;;;;;;;;;;;;;;6.82;100.00;99871.37;5576116;31;34374;-74
2022/11/24 14:23:50;;;;;;;;;;;;;;;6.83;100.00;99861.63;5590430;31;35109;-74
2022/11/24 14:26:54;;;;;;;;;;;;;;;6.68;100.00;99874.56;5576589;31;35052;-74
2022/11/24 14:29:59;;;;;;;;;;;;;;;6.63;100.00;99879.50;5576218;31;35368;-73
2022/11/24 14:33:03;;;;;;;;;;;;;;;6.56;100.00;99883.72;5589947;31;35059;-73
2022/11/24 14:36:12;;;;;;;;;;;;;;;6.54;100.00;99875.12;5589763;31;35001;-74
2022/11/24 14:39:18;;;;;;;;;;;;;;;6.45;100.00;99882.16;5562993;31;34587;-73
2022/11/24 14:42:24;;;;;;;;;;;;;;;6.43;100.00;99883.31;5576057;31;35949;-72
2022/11/24 14:45:27;;;;;;;;;;;;;;;6.37;100.00;99891.81;5575835;31;35714;-73
2022/11/24 14:48:36;;;;;;;;;;;;;;;6.40;100.00;99892.31;5575436;31;33594;-72
2022/11/24 14:51:42;;;;;;;;;;;;;;;6.35;100.00;99889.31;5575797;31;35514;-73
2022/11/24 14:54:48;;;;;;;;;;;;;;;6.36;100.00;99901.53;5589489;31;34468;-75
2022/11/24 14:57:51;;;;;;;;;;;;;;;6.28;100.00;99908.53;5589764;31;34533;-73
2022/11/24 15:01:17;;;;;;;;;;;;;;;6.25;100.00;99917.56;5576035;31;35148;-74
2022/11/24 15:04:24;;;;;;;;;;;;;;;6.26;100.00;99923.66;5589573;31;34567;-72
2022/11/24 15:07:50;;;;;;;;;;;;;;;6.25;100.00;99930.72;5575422;31;35221;-74
2022/11/24 15:10:56;;;;;;;;;;;;;;;6.18;100.00;99932.31;5589565;31;34930;-72
2022/11/24 15:13:59;;;;;;;;;;;;;;;6.19;100.00;99933.16;5575837;31;34579;-73
2022/11/24 15:17:05;;;;;;;;;;;;;;;6.08;100.00;99945.56;5589426;31;35225;-73
2022/11/24 15:20:09;;;;;;;;;;;;;;;6.10;100.00;99948.84;5575727;31;34645;-71
2022/11/24 15:23:19;;;;;;;;;;;;;;;6.04;100.00;99941.56;5574899;31;34591;-72
2022/11/24 15:26:29;;;;;;;;;;;;;;;5.98;100.00;99943.97;5588897;31;34491;-74
2022/11/24 15:29:40;;;;;;;;;;;;;;;6.02;100.00;99947.94;5588739;31;35185;-71
2022/11/24 15:32:55;;;;;;;;;;;;;;;5.97;100.00;99945.75;5589442;31;34498;-73
2022/11/24 15:36:00;;;;;;;;;;;;;;;5.88;100.00;99940.56;5589112;31;34575;-73
2022/11/24 15:39:04;;;;;;;;;;;;;;;5.83;100.00;99948.88;5589037;31;34768;-73
2022/11/24 15:42:10;;;;;;;;;;;;;;;5.82;100.00;99941.13;5588851;31;34982;-73
2022/11/24 15:45:15;;;;;;;;;;;;;;;5.70;100.00;99951.03;5588953;31;34806;-72
2022/11/24 15:48:19;;;;;;;;;;;;;;;5.68;100.00;99951.19;5589244;31;35223;-74
2022/11/24 15:51:25;;;;;;;;;;;;;;;5.69;100.00;99952.00;5588699;31;34622;-72
2022/11/24 15:54:29;;;;;;;;;;;;;;;5.57;100.00;99948.72;5588359;31;34943;-73
2022/11/24 15:57:34;;;;;;;;;;;;;;;5.59;100.00;99959.12;5588974;31;34624;-73
2022/11/24 16:00:38;;;;;;;;;;;;;;;5.60;100.00;99956.34;5588920;31;34979;-72
2022/11/24 16:03:43;;;;;;;;;;;;;;;5.62;100.00;99956.19;5589021;31;34451;-73
2022/11/24 16:06:50;;;;;;;;;;;;;;;5.59;100.00;99952.06;5575068;31;35731;-73
2022/11/24 16:09:54;;;;;;;;;;;;;;;5.57;100.00;99950.53;5588836;31;34012;-72
2022/11/24 16:12:59;;;;;;;;;;;;;;;5.51;100.00;99957.25;5588750;31;34532;-73
2022/11/24 16:16:04;;;;;;;;;;;;;;;5.48;100.00;99962.78;5568353;32;34393;-73
2022/11/24 16:19:09;;;;;;;;;;;;;;;5.49;100.00;99958.34;5569164;32;35181;-73
2022/11/24 16:22:15;;;;;;;;;;;;;;;5.50;100.00;99960.84;5568563;32;34267;-73